Terminal Aerodrome Forecast
Issued by NWS Jackson, MS

Home | Current Version | Previous Version | Text Only | Print | Product List | Glossary On
Versions: 1 2 3 4 5 6 7 8 9 10 11
868
FTUS44 KMEG 081128
TAFTUP
TAF
KTUP 081128Z 0812/0912 28007KT P6SM OVC090
     FM081500 31011G18KT P6SM OVC035
     FM090600 33006KT P6SM OVC100=

USA.gov is the U.S. government's official web portal to all federal, state and local government web resources and services.